createdAt,value
2023-02-21T00:02:19.905Z,3.92
2023-02-21T00:05:06.940Z,4.55
2023-02-21T00:07:54.191Z,4.53
2023-02-21T00:10:40.992Z,4.50
2023-02-21T00:13:27.678Z,4.38
2023-02-21T00:16:16.094Z,4.90
2023-02-21T00:19:03.025Z,4.70
2023-02-21T00:21:49.892Z,4.93
2023-02-21T00:24:38.247Z,4.30
2023-02-21T00:27:25.435Z,5.40
2023-02-21T00:30:13.366Z,4.97
2023-02-21T00:33:01.457Z,4.93
2023-02-21T00:35:49.891Z,5.20
2023-02-21T00:38:37.029Z,5.22
2023-02-21T00:41:23.718Z,4.95
2023-02-21T00:44:11.136Z,4.07
2023-02-21T00:46:58.042Z,4.30
2023-02-21T00:49:45.935Z,3.88
2023-02-21T00:52:32.787Z,3.83
2023-02-21T00:55:20.056Z,2.95
2023-02-21T00:58:06.894Z,3.70
2023-02-21T01:00:54.084Z,4.25
2023-02-21T01:03:40.964Z,3.42
2023-02-21T01:06:30.672Z,3.38
2023-02-21T01:09:17.572Z,3.92
2023-02-21T01:12:04.412Z,4.55
2023-02-21T01:14:52.493Z,3.63
2023-02-21T01:17:39.947Z,3.03
2023-02-21T01:20:27.264Z,3.65
2023-02-21T01:23:15.228Z,4.70
2023-02-21T01:26:02.183Z,3.80
2023-02-21T01:28:49.212Z,3.83
2023-02-21T01:31:36.785Z,3.03
2023-02-21T01:34:23.727Z,3.72
2023-02-21T01:37:11.001Z,3.78
2023-02-21T01:39:59.005Z,3.80
2023-02-21T01:42:47.483Z,4.30
2023-02-21T01:46:06.925Z,4.05
2023-02-21T01:48:54.129Z,4.78
2023-02-21T01:51:44.704Z,4.72
2023-02-21T01:54:31.906Z,3.55
2023-02-21T01:57:23.264Z,4.10
2023-02-21T02:00:12.431Z,4.60
2023-02-21T02:03:11.592Z,4.60
2023-02-21T02:06:00.110Z,3.33
2023-02-21T02:08:49.390Z,3.03
2023-02-21T02:11:50.501Z,4.53
2023-02-21T02:14:53.072Z,3.83
2023-02-21T02:17:42.046Z,3.75
2023-02-21T02:20:55.207Z,3.30
2023-02-21T02:24:05.690Z,2.38
2023-02-21T02:27:17.866Z,2.90
2023-02-21T02:30:08.105Z,2.60
2023-02-21T02:33:23.312Z,2.63
2023-02-21T02:36:00.634Z,2.00
2023-02-21T02:38:37.835Z,3.00
2023-02-21T02:41:14.210Z,1.77
2023-02-21T02:43:51.600Z,1.70
2023-02-21T02:46:24.935Z,2.53
2023-02-21T02:48:59.474Z,2.45
2023-02-21T02:51:33.690Z,1.88
2023-02-21T02:54:05.234Z,1.52
2023-02-21T02:56:36.999Z,1.75
2023-02-21T02:59:09.346Z,2.42
2023-02-21T03:01:56.937Z,2.05
2023-02-21T03:05:12.855Z,1.88
2023-02-21T03:07:54.509Z,1.95
2023-02-21T03:10:34.120Z,1.83
2023-02-21T03:13:11.124Z,1.58
2023-02-21T03:15:49.758Z,1.85
2023-02-21T03:18:25.616Z,1.90
2023-02-21T03:20:58.641Z,1.60
2023-02-21T03:23:32.401Z,2.33
2023-02-21T03:28:34.756Z,1.75
2023-02-21T03:31:09.093Z,1.73
2023-02-21T03:33:38.804Z,1.52
2023-02-21T03:36:10.880Z,1.45
2023-02-21T03:38:42.012Z,1.40
2023-02-21T03:41:12.873Z,2.20
2023-02-21T03:43:42.415Z,1.80
2023-02-21T03:46:11.929Z,1.90
2023-02-21T03:48:42.180Z,1.50
2023-02-21T03:51:20.116Z,1.88
2023-02-21T03:53:51.573Z,1.80
2023-02-21T03:56:28.103Z,1.63
2023-02-21T03:59:19.554Z,1.50
2023-02-21T04:01:49.849Z,1.50
2023-02-21T04:04:21.234Z,1.48
2023-02-21T04:06:58.941Z,1.85
2023-02-21T04:09:29.421Z,1.98
2023-02-21T04:11:58.852Z,1.65
2023-02-21T04:14:29.212Z,1.70
2023-02-21T04:16:58.497Z,2.38
2023-02-21T04:19:28.108Z,1.63
2023-02-21T04:21:58.040Z,1.73
2023-02-21T04:24:29.736Z,2.03
2023-02-21T04:26:59.063Z,1.90
2023-02-21T04:29:28.541Z,1.70
2023-02-21T04:31:58.004Z,1.40
2023-02-21T04:34:27.746Z,1.83
2023-02-21T04:36:57.544Z,1.70
2023-02-21T04:39:26.910Z,2.03
2023-02-21T04:41:57.277Z,1.38
2023-02-21T04:44:26.439Z,2.30
2023-02-21T04:46:55.635Z,1.63
2023-02-21T04:49:27.610Z,2.13
2023-02-21T04:51:56.868Z,1.52
2023-02-21T04:54:26.364Z,1.83
2023-02-21T04:56:56.868Z,2.08
2023-02-21T04:59:26.131Z,1.90
2023-02-21T05:01:55.558Z,2.35
2023-02-21T05:04:24.538Z,1.83
2023-02-21T05:06:53.850Z,1.70
2023-02-21T05:09:23.127Z,1.95
2023-02-21T05:11:52.213Z,1.40
2023-02-21T05:14:22.742Z,2.38
2023-02-21T05:16:52.134Z,1.88
2023-02-21T05:19:27.676Z,1.90
2023-02-21T05:21:58.822Z,2.35
2023-02-21T05:24:29.157Z,1.60
2023-02-21T05:26:59.155Z,2.33
2023-02-21T05:29:29.895Z,1.65
2023-02-21T05:31:59.694Z,1.73
2023-02-21T05:34:29.197Z,2.55
2023-02-21T05:36:59.149Z,1.90
2023-02-21T05:39:28.873Z,2.10
2023-02-21T05:41:58.433Z,2.00
2023-02-21T05:44:29.221Z,1.80
2023-02-21T05:46:58.445Z,1.63
2023-02-21T05:49:28.057Z,1.88
2023-02-21T05:51:57.376Z,1.50
2023-02-21T05:54:26.505Z,1.80
2023-02-21T05:56:55.718Z,2.00
2023-02-21T05:59:25.210Z,2.17
2023-02-21T06:01:56.877Z,2.25
2023-02-21T06:04:26.508Z,2.03
2023-02-21T06:06:55.823Z,1.90
2023-02-21T06:09:24.919Z,1.58
2023-02-21T06:11:57.917Z,2.17
2023-02-21T06:14:27.371Z,2.15
2023-02-21T06:16:58.612Z,1.50
2023-02-21T06:19:28.545Z,1.52
2023-02-21T06:21:57.745Z,2.10
2023-02-21T06:24:26.975Z,2.35
2023-02-21T06:26:56.397Z,2.17
2023-02-21T06:29:25.600Z,2.40
2023-02-21T06:31:59.256Z,1.77
2023-02-21T06:36:58.034Z,2.90
2023-02-21T06:39:27.371Z,2.13
2023-02-21T06:41:56.713Z,1.95
2023-02-21T06:44:26.426Z,2.05
2023-02-21T06:46:55.952Z,1.80
2023-02-21T06:49:26.700Z,1.80
2023-02-21T06:51:56.225Z,2.30
2023-02-21T06:54:25.723Z,2.83
2023-02-21T06:56:55.024Z,1.73
2023-02-21T06:59:24.535Z,1.90
2023-02-21T07:01:53.960Z,1.90
2023-02-21T07:04:23.596Z,1.98
2023-02-21T07:06:55.123Z,1.65
2023-02-21T07:09:24.791Z,1.73
2023-02-21T07:11:54.270Z,1.77
2023-02-21T07:14:23.770Z,1.88
2023-02-21T07:16:53.370Z,2.35
2023-02-21T07:19:23.042Z,2.10
2023-02-21T07:21:52.067Z,2.17
2023-02-21T07:24:22.584Z,2.03
2023-02-21T07:26:52.143Z,2.78
2023-02-21T07:29:21.833Z,1.98
2023-02-21T07:31:51.319Z,2.03
2023-02-21T07:34:23.614Z,2.05
2023-02-21T07:36:53.219Z,1.92
2023-02-21T07:39:23.969Z,2.40
2023-02-21T07:41:54.925Z,2.30
2023-02-21T07:44:32.077Z,1.73
2023-02-21T07:47:02.049Z,1.67
2023-02-21T07:49:31.641Z,1.42
2023-02-21T07:52:01.298Z,2.13
2023-02-21T07:54:32.040Z,2.83
2023-02-21T07:57:01.802Z,1.92
2023-02-21T07:59:31.337Z,1.83
2023-02-21T08:02:01.673Z,2.05
2023-02-21T08:04:31.544Z,1.90
2023-02-21T08:07:01.430Z,1.90
2023-02-21T08:09:32.367Z,1.92
2023-02-21T08:12:02.232Z,1.70
2023-02-21T08:14:34.597Z,1.38
2023-02-21T08:17:05.092Z,1.55
2023-02-21T08:19:34.584Z,1.60
2023-02-21T08:22:04.222Z,1.80
2023-02-21T08:24:34.972Z,1.83
2023-02-21T08:27:04.508Z,1.95
2023-02-21T08:29:34.337Z,2.30
2023-02-21T08:32:04.430Z,1.80
2023-02-21T08:34:34.344Z,2.13
2023-02-21T08:37:05.301Z,2.10
2023-02-21T08:42:08.388Z,1.13
2023-02-21T08:44:38.261Z,1.80
2023-02-21T08:47:08.018Z,2.22
2023-02-21T08:49:40.011Z,2.40
2023-02-21T08:52:09.526Z,1.60
2023-02-21T08:54:41.268Z,2.00
2023-02-21T08:57:13.984Z,2.03
2023-02-21T08:59:45.197Z,2.00
2023-02-21T09:02:19.336Z,2.40
2023-02-21T09:04:49.118Z,1.63
2023-02-21T09:07:21.605Z,2.63
2023-02-21T09:09:52.218Z,2.03
2023-02-21T09:12:21.786Z,2.50
2023-02-21T09:14:51.189Z,2.25
2023-02-21T09:17:20.565Z,1.63
2023-02-21T09:19:49.836Z,2.63
2023-02-21T09:22:19.621Z,2.10
2023-02-21T09:24:48.924Z,2.35
2023-02-21T09:27:20.213Z,2.25
2023-02-21T09:29:49.924Z,1.73
2023-02-21T09:32:19.294Z,1.58
2023-02-21T09:34:48.614Z,2.08
2023-02-21T09:37:18.164Z,2.00
2023-02-21T09:39:48.093Z,2.22
2023-02-21T09:42:19.844Z,1.65
2023-02-21T09:44:50.057Z,1.63
2023-02-21T09:47:27.161Z,1.55
2023-02-21T09:50:01.936Z,2.13
2023-02-21T09:52:34.628Z,1.83
2023-02-21T09:55:09.950Z,1.92
2023-02-21T09:57:40.815Z,1.58
2023-02-21T10:00:19.360Z,1.67
2023-02-21T10:02:58.196Z,1.88
2023-02-21T10:05:41.249Z,1.40
2023-02-21T10:08:20.836Z,1.80
2023-02-21T10:10:55.526Z,1.65
2023-02-21T10:13:40.781Z,1.83
2023-02-21T10:16:18.619Z,1.25
2023-02-21T10:18:56.335Z,1.30
2023-02-21T10:21:31.104Z,1.20
2023-02-21T10:24:04.927Z,1.20
2023-02-21T10:26:41.316Z,1.83
2023-02-21T10:29:22.596Z,1.40
2023-02-21T10:31:57.904Z,0.90
2023-02-21T10:34:29.288Z,1.27
2023-02-21T10:37:05.561Z,1.27
2023-02-21T10:39:43.064Z,1.77
2023-02-21T10:42:22.921Z,1.73
2023-02-21T10:44:54.618Z,1.88
2023-02-21T10:47:30.944Z,1.60
2023-02-21T10:50:03.224Z,1.48
2023-02-21T10:52:38.565Z,2.00
2023-02-21T10:55:31.206Z,1.35
2023-02-21T10:58:10.899Z,2.15
2023-02-21T11:00:48.368Z,1.92
2023-02-21T11:03:27.655Z,1.55
2023-02-21T11:05:59.048Z,1.73
2023-02-21T11:08:39.288Z,2.00
2023-02-21T11:11:09.823Z,2.28
2023-02-21T11:13:39.150Z,2.78
2023-02-21T11:16:13.378Z,2.00
2023-02-21T11:18:42.813Z,1.92
2023-02-21T11:21:14.939Z,1.90
2023-02-21T11:23:59.219Z,1.92
2023-02-21T11:26:30.752Z,1.98
2023-02-21T11:29:12.472Z,2.33
2023-02-21T11:31:43.861Z,2.35
2023-02-21T11:34:16.212Z,1.40
2023-02-21T11:36:47.506Z,1.83
2023-02-21T11:39:19.075Z,1.75
2023-02-21T11:41:51.072Z,2.28
2023-02-21T11:44:29.870Z,1.70
2023-02-21T11:47:15.233Z,1.90
2023-02-21T11:49:54.913Z,2.55
2023-02-21T11:52:29.820Z,2.22
2023-02-21T11:54:59.852Z,1.65
2023-02-21T11:57:40.948Z,2.53
2023-02-21T12:00:23.129Z,2.60
2023-02-21T12:03:04.911Z,1.80
2023-02-21T12:05:49.068Z,2.05
2023-02-21T12:08:36.770Z,1.30
2023-02-21T12:11:18.560Z,1.30
2023-02-21T12:13:58.882Z,1.30
2023-02-21T12:16:40.000Z,1.42
2023-02-21T12:19:25.052Z,1.38
2023-02-21T12:22:04.960Z,1.27
2023-02-21T12:24:57.324Z,1.45
2023-02-21T12:27:38.109Z,1.33
2023-02-21T12:30:36.890Z,2.00
2023-02-21T12:33:20.860Z,1.20
2023-02-21T12:36:12.706Z,2.30
2023-02-21T12:38:53.867Z,2.25
2023-02-21T12:41:34.224Z,2.03
2023-02-21T12:44:14.053Z,1.55
2023-02-21T12:46:50.474Z,1.30
2023-02-21T12:49:24.075Z,0.80
2023-02-21T12:51:59.878Z,1.55
2023-02-21T12:54:41.350Z,1.10
2023-02-21T12:57:15.663Z,1.40
2023-02-21T13:00:08.143Z,1.40
2023-02-21T13:02:46.660Z,1.77
2023-02-21T13:05:20.832Z,1.83
2023-02-21T13:07:57.531Z,2.33
2023-02-21T13:10:28.930Z,3.42
2023-02-21T13:13:02.189Z,2.17
2023-02-21T13:15:33.167Z,1.88
2023-02-21T13:18:07.136Z,1.90
2023-02-21T13:20:41.307Z,1.98
2023-02-21T13:23:14.227Z,1.75
2023-02-21T13:26:00.201Z,1.52
2023-02-21T13:28:31.753Z,2.03
2023-02-21T13:31:04.032Z,1.67
2023-02-21T13:33:42.504Z,1.50
2023-02-21T13:36:22.740Z,1.75
2023-02-21T13:39:12.622Z,1.30
2023-02-21T13:41:45.554Z,1.27
2023-02-21T13:44:20.023Z,1.42
2023-02-21T13:47:16.167Z,1.40
2023-02-21T13:49:50.753Z,1.20
2023-02-21T13:52:49.918Z,1.02
2023-02-21T13:55:28.572Z,1.48
2023-02-21T13:58:32.699Z,1.17
2023-02-21T14:01:25.207Z,0.90
2023-02-21T14:03:58.542Z,1.05
2023-02-21T14:06:34.887Z,1.20
2023-02-21T14:09:12.942Z,1.00
2023-02-21T14:11:50.130Z,1.50
2023-02-21T14:14:28.854Z,1.08
2023-02-21T14:17:03.369Z,1.10
2023-02-21T14:19:38.110Z,1.30
2023-02-21T14:22:14.770Z,1.33
2023-02-21T14:24:46.318Z,1.55
2023-02-21T14:27:38.451Z,1.60
2023-02-21T14:30:26.954Z,1.13
2023-02-21T14:32:59.118Z,1.00
2023-02-21T14:35:35.449Z,1.10
2023-02-21T14:38:08.820Z,1.38
2023-02-21T14:40:49.246Z,1.20
2023-02-21T14:43:38.061Z,1.33
2023-02-21T14:46:25.161Z,1.27
2023-02-21T14:49:10.968Z,1.00
2023-02-21T14:51:59.404Z,1.00
2023-02-21T14:55:01.653Z,1.88
2023-02-21T14:58:09.328Z,1.10
2023-02-21T15:00:56.791Z,1.20
2023-02-21T15:03:33.974Z,0.93
2023-02-21T15:06:08.497Z,1.00
2023-02-21T15:08:48.324Z,1.20
2023-02-21T15:11:26.023Z,1.20
2023-02-21T15:14:23.086Z,0.90
2023-02-21T15:16:56.287Z,0.75
2023-02-21T15:19:29.705Z,0.80
2023-02-21T15:22:24.170Z,1.02
2023-02-21T15:25:21.611Z,1.08
2023-02-21T15:28:02.681Z,0.95
2023-02-21T15:30:38.830Z,0.93
2023-02-21T15:33:19.468Z,1.15
2023-02-21T15:35:52.973Z,1.00
2023-02-21T15:38:30.652Z,1.23
2023-02-21T15:41:04.641Z,1.35
2023-02-21T15:43:43.791Z,1.42
2023-02-21T15:46:19.518Z,1.42
2023-02-21T15:48:51.728Z,1.13
2023-02-21T15:51:21.316Z,1.02
2023-02-21T15:54:25.658Z,1.60
2023-02-21T15:57:23.734Z,1.60
2023-02-21T16:00:19.778Z,1.50
2023-02-21T16:02:49.403Z,0.68
2023-02-21T16:05:28.629Z,0.70
2023-02-21T16:08:04.585Z,0.55
2023-02-21T16:10:34.004Z,0.70
2023-02-21T16:13:03.881Z,0.57
2023-02-21T16:15:36.408Z,0.50
2023-02-21T16:18:08.303Z,0.45
2023-02-21T16:20:40.994Z,0.50
2023-02-21T16:23:23.648Z,0.70
2023-02-21T16:26:01.517Z,0.70
2023-02-21T16:28:32.395Z,0.70
2023-02-21T16:31:04.687Z,0.77
2023-02-21T16:33:35.739Z,0.60
2023-02-21T16:36:10.193Z,0.60
2023-02-21T16:38:39.662Z,0.70
2023-02-21T16:41:15.743Z,0.60
2023-02-21T16:43:45.273Z,0.80
2023-02-21T16:46:15.290Z,1.17
2023-02-21T16:48:45.049Z,0.88
2023-02-21T16:51:16.995Z,0.80
2023-02-21T16:53:47.679Z,0.82
2023-02-21T16:56:17.971Z,0.82
2023-02-21T16:58:51.260Z,0.80
2023-02-21T17:01:27.619Z,0.80
2023-02-21T17:03:57.248Z,0.82
2023-02-21T17:06:29.020Z,0.70
2023-02-21T17:09:00.887Z,0.90
2023-02-21T17:11:30.255Z,0.90
2023-02-21T17:13:59.538Z,0.95
2023-02-21T17:16:28.984Z,1.40
2023-02-21T17:18:58.650Z,1.10
2023-02-21T17:21:29.901Z,0.60
2023-02-21T17:24:00.480Z,1.25
2023-02-21T17:26:30.138Z,0.90
2023-02-21T17:28:59.649Z,0.90
2023-02-21T17:31:29.216Z,0.90
2023-02-21T17:33:58.528Z,0.90
2023-02-21T17:36:30.390Z,0.95
2023-02-21T17:39:00.066Z,1.05
2023-02-21T17:41:31.865Z,0.88
2023-02-21T17:44:01.813Z,1.20
2023-02-21T17:46:32.175Z,1.10
2023-02-21T17:49:01.671Z,0.85
2023-02-21T17:51:33.732Z,0.85
2023-02-21T17:54:03.636Z,0.80
2023-02-21T17:56:33.352Z,0.93
2023-02-21T17:59:02.682Z,0.65
2023-02-21T18:01:32.924Z,0.75
2023-02-21T18:04:02.800Z,1.15
2023-02-21T18:06:33.278Z,1.48
2023-02-21T18:09:03.311Z,1.10
2023-02-21T18:11:32.992Z,0.75
2023-02-21T18:14:03.618Z,1.20
2023-02-21T18:16:33.277Z,0.80
2023-02-21T18:19:03.332Z,0.90
2023-02-21T18:21:33.985Z,1.00
2023-02-21T18:24:03.954Z,0.90
2023-02-21T18:26:34.269Z,1.02
2023-02-21T18:29:03.724Z,1.25
2023-02-21T18:31:35.005Z,1.08
2023-02-21T18:34:05.203Z,1.00
2023-02-21T18:36:36.400Z,1.13
2023-02-21T18:39:07.154Z,1.20
2023-02-21T18:41:37.196Z,1.10
2023-02-21T18:44:06.660Z,1.25
2023-02-21T18:46:38.734Z,1.00
2023-02-21T18:49:08.158Z,0.98
2023-02-21T18:51:39.842Z,1.10
2023-02-21T18:54:10.028Z,1.15
2023-02-21T18:56:39.755Z,1.35
2023-02-21T18:59:10.894Z,1.20
2023-02-21T19:01:40.447Z,1.02
2023-02-21T19:04:10.183Z,1.10
2023-02-21T19:06:41.522Z,0.82
2023-02-21T19:09:11.367Z,1.10
2023-02-21T19:11:43.022Z,1.40
2023-02-21T19:14:13.096Z,1.00
2023-02-21T19:16:42.602Z,0.82
2023-02-21T19:19:12.359Z,1.00
2023-02-21T19:21:46.465Z,1.17
2023-02-21T19:24:15.883Z,1.08
2023-02-21T19:26:45.556Z,1.00
2023-02-21T19:29:15.860Z,1.20
2023-02-21T19:31:45.354Z,1.05
2023-02-21T19:34:14.752Z,1.23
2023-02-21T19:36:47.264Z,0.90
2023-02-21T19:39:16.870Z,1.05
2023-02-21T19:41:46.544Z,1.10
2023-02-21T19:44:16.120Z,1.02
2023-02-21T19:46:45.343Z,0.80
2023-02-21T19:49:18.263Z,0.90
2023-02-21T19:51:51.522Z,1.00
2023-02-21T19:54:22.961Z,0.90
2023-02-21T19:56:53.216Z,0.98
2023-02-21T19:59:22.808Z,0.80
2023-02-21T20:01:52.488Z,0.80
2023-02-21T20:04:22.840Z,0.88
2023-02-21T20:06:54.783Z,0.80
2023-02-21T20:09:24.985Z,0.98
2023-02-21T20:11:58.175Z,1.00
2023-02-21T20:14:28.996Z,1.08
2023-02-21T20:16:58.626Z,0.90
2023-02-21T20:19:30.359Z,1.02
2023-02-21T20:22:01.688Z,0.80
2023-02-21T20:24:30.963Z,1.00
2023-02-21T20:27:00.607Z,0.82
2023-02-21T20:29:30.247Z,0.80
2023-02-21T20:32:00.777Z,1.00
2023-02-21T20:34:30.792Z,0.95
2023-02-21T20:37:01.957Z,1.13
2023-02-21T20:39:31.851Z,0.98
2023-02-21T20:42:03.166Z,1.05
2023-02-21T20:44:35.931Z,0.80
2023-02-21T20:47:07.064Z,0.97
2023-02-21T20:49:36.925Z,1.15
2023-02-21T20:52:08.687Z,1.20
2023-02-21T20:54:38.486Z,1.00
2023-02-21T20:57:09.033Z,0.90
2023-02-21T20:59:40.190Z,1.20
2023-02-21T21:02:10.298Z,1.50
2023-02-21T21:04:43.630Z,1.40
2023-02-21T21:07:19.998Z,1.60
2023-02-21T21:09:49.840Z,1.20
2023-02-21T21:12:21.276Z,1.25
2023-02-21T21:14:53.322Z,1.40
2023-02-21T21:17:23.198Z,1.08
2023-02-21T21:19:53.490Z,1.80
2023-02-21T21:22:27.284Z,1.30
2023-02-21T21:24:57.278Z,1.38
2023-02-21T21:27:28.106Z,1.15
2023-02-21T21:29:58.818Z,1.52
2023-02-21T21:32:28.781Z,1.23
2023-02-21T21:34:59.232Z,1.30
2023-02-21T21:37:32.048Z,1.77
2023-02-21T21:40:15.524Z,1.83
2023-02-21T21:42:45.699Z,1.73
2023-02-21T21:45:24.573Z,2.50
2023-02-21T21:47:59.037Z,2.83
2023-02-21T21:53:00.301Z,2.42
2023-02-21T21:55:31.926Z,2.67
2023-02-21T21:58:01.709Z,3.45
2023-02-21T22:00:41.346Z,2.97
2023-02-21T22:03:14.598Z,3.35
2023-02-21T22:05:44.674Z,3.47
2023-02-21T22:08:17.949Z,3.75
2023-02-21T22:10:48.387Z,4.32
2023-02-21T22:13:20.856Z,3.97
2023-02-21T22:15:50.547Z,4.07
2023-02-21T22:18:21.095Z,4.53
2023-02-21T22:20:50.526Z,4.07
2023-02-21T22:23:24.366Z,4.22
2023-02-21T22:25:53.989Z,4.55
2023-02-21T22:28:24.114Z,4.72
2023-02-21T22:30:53.770Z,5.00
2023-02-21T22:33:23.153Z,4.85
2023-02-21T22:35:52.567Z,4.32
2023-02-21T22:38:23.251Z,4.50
2023-02-21T22:40:52.615Z,4.50
2023-02-21T22:43:22.154Z,5.10
2023-02-21T22:45:52.805Z,4.80
2023-02-21T22:48:25.443Z,4.40
2023-02-21T22:50:55.507Z,4.80
2023-02-21T22:53:26.919Z,3.95
2023-02-21T22:55:56.594Z,4.53
2023-02-21T22:58:25.677Z,4.63
2023-02-21T23:00:54.974Z,4.20
2023-02-21T23:03:29.838Z,4.47
2023-02-21T23:06:02.105Z,4.53
2023-02-21T23:08:35.345Z,4.65
2023-02-21T23:11:05.764Z,4.47
2023-02-21T23:13:35.792Z,4.55
2023-02-21T23:16:05.071Z,4.32
2023-02-21T23:18:34.179Z,3.53
2023-02-21T23:21:05.506Z,4.00
2023-02-21T23:23:38.557Z,4.10
2023-02-21T23:26:19.698Z,4.45
2023-02-21T23:28:49.901Z,4.20
2023-02-21T23:31:21.422Z,4.45
2023-02-21T23:33:53.069Z,3.47
2023-02-21T23:36:23.544Z,3.45
2023-02-21T23:38:56.856Z,3.30
2023-02-21T23:41:29.274Z,3.67
2023-02-21T23:43:58.542Z,3.65
2023-02-21T23:46:29.264Z,3.40
2023-02-21T23:48:58.494Z,3.70
2023-02-21T23:51:27.810Z,3.15
2023-02-21T23:53:58.657Z,3.72
2023-02-21T23:56:27.780Z,3.63
2023-02-21T23:58:57.166Z,3.58
